Terminal Aerodrome Forecast
Issued by NWS Springfield, MO

Home | Current Version | Previous Version | Text Only | Print | Product List | Glossary On
Versions: 1 2 3 4 5 6 7 8 9 10 11 12 13 14 15 16 17 18 19 20
000
FTUS43 KSGF 241500 AAA
TAFSGF
TAF AMD
KSGF 241505Z 2415/2512 15014KT P6SM VCSH BKN015 OVC025
      TEMPO 2416/2419 3SM SHRA BR BKN012 OVC025
     FM241900 16014G22KT P6SM VCSH BKN025 OVC050
      TEMPO 2423/2503 4SM -TSRA OVC020CB
     FM250300 22008KT P6SM -SHRA VCTS BKN005 OVC020CB
     FM250700 18006KT P6SM FEW030 BKN250=

USA.gov is the U.S. government's official web portal to all federal, state and local government web resources and services.